sensor_id;sensor_type;location;lat;lon;timestamp;pressure;altitude;pressure_sealevel;temperature;humidity
19526;BME280;9907;42.676;26.348;2023-02-03T00:01:41;99019.81;;;4.55;64.19
19526;BME280;9907;42.676;26.348;2023-02-03T00:04:06;99022.03;;;4.75;63.67
19526;BME280;9907;42.676;26.348;2023-02-03T00:06:32;99022.81;;;4.63;64.27
19526;BME280;9907;42.676;26.348;2023-02-03T00:08:58;99020.28;;;4.62;64.41
19526;BME280;9907;42.676;26.348;2023-02-03T00:11:25;99033.53;;;4.62;63.39
19526;BME280;9907;42.676;26.348;2023-02-03T00:13:50;99028.41;;;4.59;63.32
19526;BME280;9907;42.676;26.348;2023-02-03T00:16:16;99023.75;;;4.62;63.57
19526;BME280;9907;42.676;26.348;2023-02-03T00:18:41;99030.47;;;4.68;62.99
19526;BME280;9907;42.676;26.348;2023-02-03T00:21:07;99026.31;;;4.64;63.41
19526;BME280;9907;42.676;26.348;2023-02-03T00:23:32;99025.47;;;4.63;63.17
19526;BME280;9907;42.676;26.348;2023-02-03T00:26:09;99038.09;;;4.72;63.16
19526;BME280;9907;42.676;26.348;2023-02-03T00:28:34;99030.53;;;4.66;64.04
19526;BME280;9907;42.676;26.348;2023-02-03T00:31:00;99030.41;;;4.55;65.56
19526;BME280;9907;42.676;26.348;2023-02-03T00:33:25;99024.53;;;4.77;63.46
19526;BME280;9907;42.676;26.348;2023-02-03T00:35:51;99032.31;;;4.80;64.48
19526;BME280;9907;42.676;26.348;2023-02-03T00:38:16;99039.47;;;4.78;63.21
19526;BME280;9907;42.676;26.348;2023-02-03T00:40:42;99031.31;;;4.68;64.34
19526;BME280;9907;42.676;26.348;2023-02-03T00:43:07;99039.38;;;4.79;64.01
19526;BME280;9907;42.676;26.348;2023-02-03T00:45:33;99040.03;;;4.83;63.96
19526;BME280;9907;42.676;26.348;2023-02-03T00:47:58;99040.63;;;4.74;64.70
19526;BME280;9907;42.676;26.348;2023-02-03T00:50:23;99036.09;;;4.76;64.11
19526;BME280;9907;42.676;26.348;2023-02-03T00:52:49;99046.81;;;4.87;64.07
19526;BME280;9907;42.676;26.348;2023-02-03T00:55:14;99041.63;;;4.85;64.15
19526;BME280;9907;42.676;26.348;2023-02-03T00:57:40;99047.41;;;4.78;64.27
19526;BME280;9907;42.676;26.348;2023-02-03T01:00:06;99045.72;;;4.77;65.18
19526;BME280;9907;42.676;26.348;2023-02-03T01:02:32;99041.03;;;4.68;64.92
19526;BME280;9907;42.676;26.348;2023-02-03T01:04:57;99033.84;;;4.70;64.93
19526;BME280;9907;42.676;26.348;2023-02-03T01:07:23;99033.84;;;4.70;65.28
19526;BME280;9907;42.676;26.348;2023-02-03T01:09:48;99029.88;;;4.89;64.97
19526;BME280;9907;42.676;26.348;2023-02-03T01:12:14;99023.75;;;4.89;63.99
19526;BME280;9907;42.676;26.348;2023-02-03T01:14:39;99021.84;;;4.91;63.89
19526;BME280;9907;42.676;26.348;2023-02-03T01:17:05;99024.38;;;4.80;64.89
19526;BME280;9907;42.676;26.348;2023-02-03T01:19:30;99031.53;;;4.78;64.12
19526;BME280;9907;42.676;26.348;2023-02-03T01:21:55;99031.88;;;4.86;63.77
19526;BME280;9907;42.676;26.348;2023-02-03T01:24:21;99035.91;;;4.91;63.44
19526;BME280;9907;42.676;26.348;2023-02-03T01:26:46;99034.97;;;4.93;62.85
19526;BME280;9907;42.676;26.348;2023-02-03T01:29:13;99037.72;;;4.91;63.66
19526;BME280;9907;42.676;26.348;2023-02-03T01:31:40;99045.16;;;4.99;63.76
19526;BME280;9907;42.676;26.348;2023-02-03T01:34:09;99038.75;;;4.88;64.02
19526;BME280;9907;42.676;26.348;2023-02-03T01:36:36;99038.97;;;4.85;64.52
19526;BME280;9907;42.676;26.348;2023-02-03T01:39:02;99045.41;;;4.81;64.25
19526;BME280;9907;42.676;26.348;2023-02-03T01:41:32;99030.31;;;4.83;64.51
19526;BME280;9907;42.676;26.348;2023-02-03T01:43:59;99031.59;;;4.90;63.94
19526;BME280;9907;42.676;26.348;2023-02-03T01:46:42;99040.13;;;4.81;65.09
19526;BME280;9907;42.676;26.348;2023-02-03T01:49:12;99035.59;;;4.83;64.33
19526;BME280;9907;42.676;26.348;2023-02-03T01:51:40;99038.88;;;4.87;64.22
19526;BME280;9907;42.676;26.348;2023-02-03T01:54:08;99038.75;;;4.88;64.16
19526;BME280;9907;42.676;26.348;2023-02-03T01:56:38;99044.63;;;4.94;63.60
19526;BME280;9907;42.676;26.348;2023-02-03T01:59:06;99041.63;;;4.85;64.47
19526;BME280;9907;42.676;26.348;2023-02-03T02:01:32;99037.28;;;4.84;64.36
19526;BME280;9907;42.676;26.348;2023-02-03T02:04:00;99035.72;;;4.95;62.99
19526;BME280;9907;42.676;26.348;2023-02-03T02:06:27;99048.13;;;4.94;63.27
19526;BME280;9907;42.676;26.348;2023-02-03T02:08:52;99045.91;;;5.01;63.31
19526;BME280;9907;42.676;26.348;2023-02-03T02:11:20;99051.28;;;4.86;63.97
19526;BME280;9907;42.676;26.348;2023-02-03T02:13:46;99053.06;;;4.86;63.95
19526;BME280;9907;42.676;26.348;2023-02-03T02:43:47;99058.66;;;4.81;64.94
19526;BME280;9907;42.676;26.348;2023-02-03T02:46:26;99063.00;;;4.82;63.77
19526;BME280;9907;42.676;26.348;2023-02-03T02:49:02;99058.34;;;4.86;63.66
19526;BME280;9907;42.676;26.348;2023-02-03T02:51:30;99070.53;;;4.88;64.01
19526;BME280;9907;42.676;26.348;2023-02-03T02:54:01;99058.44;;;4.84;63.33
19526;BME280;9907;42.676;26.348;2023-02-03T02:56:28;99063.34;;;4.90;63.89
19526;BME280;9907;42.676;26.348;2023-02-03T02:58:57;99066.72;;;4.93;63.90
19526;BME280;9907;42.676;26.348;2023-02-03T03:01:23;99057.34;;;5.01;63.41
19526;BME280;9907;42.676;26.348;2023-02-03T03:03:49;99054.41;;;5.06;63.39
19526;BME280;9907;42.676;26.348;2023-02-03T03:06:23;99057.63;;;4.84;63.91
19526;BME280;9907;42.676;26.348;2023-02-03T03:09:01;99069.59;;;4.89;64.22
19526;BME280;9907;42.676;26.348;2023-02-03T03:11:33;99073.44;;;4.71;64.35
19526;BME280;9907;42.676;26.348;2023-02-03T03:14:01;99056.34;;;4.89;63.84
19526;BME280;9907;42.676;26.348;2023-02-03T03:16:29;99059.06;;;4.75;64.85
19526;BME280;9907;42.676;26.348;2023-02-03T03:19:20;99066.25;;;4.73;65.64
19526;BME280;9907;42.676;26.348;2023-02-03T03:22:01;99067.16;;;4.86;64.60
19526;BME280;9907;42.676;26.348;2023-02-03T03:24:30;99065.22;;;4.88;64.97
19526;BME280;9907;42.676;26.348;2023-02-03T03:27:03;99070.94;;;4.82;64.29
19526;BME280;9907;42.676;26.348;2023-02-03T03:29:36;99068.88;;;4.73;64.73
19526;BME280;9907;42.676;26.348;2023-02-03T03:32:04;99068.44;;;4.94;64.83
19526;BME280;9907;42.676;26.348;2023-02-03T03:34:30;99071.09;;;4.94;64.56
19526;BME280;9907;42.676;26.348;2023-02-03T03:37:12;99063.69;;;4.99;64.14
19526;BME280;9907;42.676;26.348;2023-02-03T03:40:02;99067.50;;;4.95;64.59
19526;BME280;9907;42.676;26.348;2023-02-03T03:42:36;99065.00;;;4.79;65.59
19526;BME280;9907;42.676;26.348;2023-02-03T03:45:21;99083.81;;;4.74;65.79
19526;BME280;9907;42.676;26.348;2023-02-03T03:48:15;99081.75;;;4.79;65.06
19526;BME280;9907;42.676;26.348;2023-02-03T03:50:55;99087.03;;;4.79;65.67
19526;BME280;9907;42.676;26.348;2023-02-03T03:53:23;99064.28;;;4.89;65.62
19526;BME280;9907;42.676;26.348;2023-02-03T03:55:53;99075.16;;;4.72;66.83
19526;BME280;9907;42.676;26.348;2023-02-03T03:58:26;99076.47;;;4.92;65.76
19526;BME280;9907;42.676;26.348;2023-02-03T04:00:54;99070.66;;;4.87;65.78
19526;BME280;9907;42.676;26.348;2023-02-03T04:03:31;99079.81;;;4.81;66.06
19526;BME280;9907;42.676;26.348;2023-02-03T04:05:57;99075.09;;;4.86;65.61
19526;BME280;9907;42.676;26.348;2023-02-03T04:08:22;99086.13;;;4.93;65.62
19526;BME280;9907;42.676;26.348;2023-02-03T04:10:48;99086.81;;;4.82;64.91
19526;BME280;9907;42.676;26.348;2023-02-03T04:13:13;99082.19;;;4.86;65.76
19526;BME280;9907;42.676;26.348;2023-02-03T04:15:40;99086.66;;;4.98;65.51
19526;BME280;9907;42.676;26.348;2023-02-03T04:18:06;99095.69;;;4.81;66.29
19526;BME280;9907;42.676;26.348;2023-02-03T04:20:32;99089.03;;;4.76;67.16
19526;BME280;9907;42.676;26.348;2023-02-03T04:22:58;99095.06;;;4.78;66.69
19526;BME280;9907;42.676;26.348;2023-02-03T04:25:24;99089.63;;;4.94;65.63
19526;BME280;9907;42.676;26.348;2023-02-03T04:27:50;99107.69;;;4.87;66.22
19526;BME280;9907;42.676;26.348;2023-02-03T04:30:15;99115.38;;;4.77;66.33
19526;BME280;9907;42.676;26.348;2023-02-03T04:32:43;99105.91;;;4.87;66.01
19526;BME280;9907;42.676;26.348;2023-02-03T04:35:09;99123.78;;;4.84;66.54
19526;BME280;9907;42.676;26.348;2023-02-03T04:37:35;99128.59;;;4.77;66.51
19526;BME280;9907;42.676;26.348;2023-02-03T04:40:01;99136.63;;;4.90;65.73
19526;BME280;9907;42.676;26.348;2023-02-03T04:42:26;99141.75;;;4.79;66.62
19526;BME280;9907;42.676;26.348;2023-02-03T04:44:52;99141.63;;;4.80;66.44
19526;BME280;9907;42.676;26.348;2023-02-03T04:47:18;99146.94;;;4.80;66.62
19526;BME280;9907;42.676;26.348;2023-02-03T04:49:44;99153.94;;;4.81;66.06
19526;BME280;9907;42.676;26.348;2023-02-03T04:52:10;99150.78;;;4.89;66.25
19526;BME280;9907;42.676;26.348;2023-02-03T04:54:35;99151.00;;;4.86;66.13
19526;BME280;9907;42.676;26.348;2023-02-03T04:57:02;99165.09;;;4.86;65.95
19526;BME280;9907;42.676;26.348;2023-02-03T04:59:27;99165.38;;;4.82;66.45
19526;BME280;9907;42.676;26.348;2023-02-03T05:01:53;99168.94;;;4.81;66.63
19526;BME280;9907;42.676;26.348;2023-02-03T05:04:19;99170.22;;;4.75;66.62
19526;BME280;9907;42.676;26.348;2023-02-03T05:06:44;99169.56;;;4.72;66.51
19526;BME280;9907;42.676;26.348;2023-02-03T05:09:10;99183.44;;;4.75;67.63
19526;BME280;9907;42.676;26.348;2023-02-03T05:11:35;99186.53;;;4.82;67.17
19526;BME280;9907;42.676;26.348;2023-02-03T05:14:01;99181.44;;;4.79;67.42
19526;BME280;9907;42.676;26.348;2023-02-03T05:16:26;99189.47;;;4.77;67.37
19526;BME280;9907;42.676;26.348;2023-02-03T05:18:51;99199.22;;;4.77;67.66
19526;BME280;9907;42.676;26.348;2023-02-03T05:21:17;99192.69;;;4.82;67.46
19526;BME280;9907;42.676;26.348;2023-02-03T05:23:43;99189.47;;;4.77;68.51
19526;BME280;9907;42.676;26.348;2023-02-03T05:26:08;99209.31;;;4.84;68.31
19526;BME280;9907;42.676;26.348;2023-02-03T05:28:34;99209.91;;;4.75;68.64
19526;BME280;9907;42.676;26.348;2023-02-03T05:31:00;99212.56;;;4.75;68.89
19526;BME280;9907;42.676;26.348;2023-02-03T05:33:26;99215.19;;;4.75;68.19
19526;BME280;9907;42.676;26.348;2023-02-03T05:35:52;99215.16;;;4.89;67.46
19526;BME280;9907;42.676;26.348;2023-02-03T05:38:17;99223.59;;;4.82;68.33
19526;BME280;9907;42.676;26.348;2023-02-03T05:40:43;99215.00;;;4.78;68.76
19526;BME280;9907;42.676;26.348;2023-02-03T05:43:27;99220.03;;;4.69;68.28
19526;BME280;9907;42.676;26.348;2023-02-03T05:45:53;99209.72;;;4.64;68.26
19526;BME280;9907;42.676;26.348;2023-02-03T05:48:18;99218.88;;;4.59;68.29
19526;BME280;9907;42.676;26.348;2023-02-03T05:50:44;99220.31;;;4.64;68.97
19526;BME280;9907;42.676;26.348;2023-02-03T05:53:09;99213.13;;;4.66;69.47
19526;BME280;9907;42.676;26.348;2023-02-03T05:55:35;99232.22;;;4.71;69.27
19526;BME280;9907;42.676;26.348;2023-02-03T05:58:02;99229.53;;;4.85;68.74
19526;BME280;9907;42.676;26.348;2023-02-03T06:00:27;99239.19;;;4.86;67.68
19526;BME280;9907;42.676;26.348;2023-02-03T06:02:55;99240.97;;;4.86;68.97
19526;BME280;9907;42.676;26.348;2023-02-03T06:05:22;99239.03;;;4.75;69.88
19526;BME280;9907;42.676;26.348;2023-02-03T06:07:48;99242.22;;;4.80;69.72
19526;BME280;9907;42.676;26.348;2023-02-03T06:10:15;99243.72;;;4.84;69.41
19526;BME280;9907;42.676;26.348;2023-02-03T06:12:40;99250.34;;;4.77;70.24
19526;BME280;9907;42.676;26.348;2023-02-03T06:15:06;99254.78;;;4.91;72.80
19526;BME280;9907;42.676;26.348;2023-02-03T06:17:32;99250.88;;;4.97;71.57
19526;BME280;9907;42.676;26.348;2023-02-03T06:19:58;99243.34;;;4.90;70.49
19526;BME280;9907;42.676;26.348;2023-02-03T06:22:23;99251.88;;;5.22;71.37
19526;BME280;9907;42.676;26.348;2023-02-03T06:24:49;99254.38;;;5.38;69.41
19526;BME280;9907;42.676;26.348;2023-02-03T06:27:15;99237.41;;;5.14;71.51
19526;BME280;9907;42.676;26.348;2023-02-03T06:29:41;99237.38;;;5.01;69.87
19526;BME280;9907;42.676;26.348;2023-02-03T06:32:07;99237.84;;;4.94;70.93
19526;BME280;9907;42.676;26.348;2023-02-03T06:34:32;99233.13;;;4.84;71.20
19526;BME280;9907;42.676;26.348;2023-02-03T06:36:58;99230.59;;;4.83;71.79
19526;BME280;9907;42.676;26.348;2023-02-03T06:39:23;99228.78;;;4.98;71.85
19526;BME280;9907;42.676;26.348;2023-02-03T06:41:49;99233.41;;;4.94;71.93
19526;BME280;9907;42.676;26.348;2023-02-03T06:44:19;99228.13;;;4.94;71.52
19526;BME280;9907;42.676;26.348;2023-02-03T06:46:44;99229.47;;;4.87;72.40
19526;BME280;9907;42.676;26.348;2023-02-03T06:49:10;99233.56;;;5.05;71.43
19526;BME280;9907;42.676;26.348;2023-02-03T06:51:35;99238.59;;;4.96;72.09
19526;BME280;9907;42.676;26.348;2023-02-03T06:54:01;99245.44;;;4.85;71.75
19526;BME280;9907;42.676;26.348;2023-02-03T06:56:28;99259.22;;;4.90;71.94
19526;BME280;9907;42.676;26.348;2023-02-03T06:58:54;99264.41;;;4.92;71.62
19526;BME280;9907;42.676;26.348;2023-02-03T07:01:20;99263.47;;;4.93;71.69
19526;BME280;9907;42.676;26.348;2023-02-03T07:03:46;99271.34;;;4.95;72.15
19526;BME280;9907;42.676;26.348;2023-02-03T07:06:12;99280.22;;;4.94;71.78
19526;BME280;9907;42.676;26.348;2023-02-03T07:08:38;99284.91;;;5.03;71.01
19526;BME280;9907;42.676;26.348;2023-02-03T07:11:04;99274.69;;;5.11;70.39
19526;BME280;9907;42.676;26.348;2023-02-03T07:13:29;99285.97;;;5.00;71.44
19526;BME280;9907;42.676;26.348;2023-02-03T07:15:55;99292.56;;;5.07;72.37
19526;BME280;9907;42.676;26.348;2023-02-03T07:18:20;99303.72;;;5.12;71.76
19526;BME280;9907;42.676;26.348;2023-02-03T07:20:49;99310.63;;;5.15;71.95
19526;BME280;9907;42.676;26.348;2023-02-03T07:23:15;99297.00;;;5.21;71.46
19526;BME280;9907;42.676;26.348;2023-02-03T07:25:41;99305.38;;;5.42;70.67
19526;BME280;9907;42.676;26.348;2023-02-03T07:28:07;99305.78;;;5.21;69.79
19526;BME280;9907;42.676;26.348;2023-02-03T07:30:32;99304.22;;;5.05;70.53
19526;BME280;9907;42.676;26.348;2023-02-03T07:32:58;99311.69;;;5.12;71.01
19526;BME280;9907;42.676;26.348;2023-02-03T07:35:23;99304.03;;;5.08;71.19
19526;BME280;9907;42.676;26.348;2023-02-03T07:37:50;99304.88;;;5.08;71.68
19526;BME280;9907;42.676;26.348;2023-02-03T07:40:16;99313.88;;;5.06;71.32
19526;BME280;9907;42.676;26.348;2023-02-03T07:42:42;99305.53;;;5.12;71.65
19526;BME280;9907;42.676;26.348;2023-02-03T07:45:09;99308.91;;;5.14;71.77
19526;BME280;9907;42.676;26.348;2023-02-03T07:47:36;99305.78;;;5.21;71.81
19526;BME280;9907;42.676;26.348;2023-02-03T07:50:02;99314.94;;;5.30;70.83
19526;BME280;9907;42.676;26.348;2023-02-03T07:52:28;99315.16;;;5.27;70.33
19526;BME280;9907;42.676;26.348;2023-02-03T07:54:53;99321.28;;;5.42;69.88
19526;BME280;9907;42.676;26.348;2023-02-03T07:57:18;99323.84;;;5.29;71.18
19526;BME280;9907;42.676;26.348;2023-02-03T07:59:44;99337.84;;;5.31;68.92
19526;BME280;9907;42.676;26.348;2023-02-03T08:02:09;99325.63;;;5.43;69.35
19526;BME280;9907;42.676;26.348;2023-02-03T08:04:38;99323.84;;;5.43;69.51
19526;BME280;9907;42.676;26.348;2023-02-03T08:07:03;99334.59;;;5.40;69.31
19526;BME280;9907;42.676;26.348;2023-02-03T08:09:28;99331.63;;;5.32;68.44
19526;BME280;9907;42.676;26.348;2023-02-03T08:11:54;99331.00;;;5.41;69.12
19526;BME280;9907;42.676;26.348;2023-02-03T08:14:20;99327.75;;;5.64;68.94
19526;BME280;9907;42.676;26.348;2023-02-03T08:16:45;99338.94;;;5.82;68.16
19526;BME280;9907;42.676;26.348;2023-02-03T08:19:11;99346.88;;;5.96;66.39
19526;BME280;9907;42.676;26.348;2023-02-03T08:21:37;99339.84;;;5.95;66.84
19526;BME280;9907;42.676;26.348;2023-02-03T08:24:02;99332.97;;;5.93;66.55
19526;BME280;9907;42.676;26.348;2023-02-03T08:26:28;99329.66;;;5.89;66.37
19526;BME280;9907;42.676;26.348;2023-02-03T08:28:53;99326.28;;;6.00;66.17
19526;BME280;9907;42.676;26.348;2023-02-03T08:31:19;99330.38;;;6.18;66.46
19526;BME280;9907;42.676;26.348;2023-02-03T08:33:44;99329.25;;;6.34;64.94
19526;BME280;9907;42.676;26.348;2023-02-03T08:36:10;99340.81;;;6.33;64.12
19526;BME280;9907;42.676;26.348;2023-02-03T08:38:37;99338.19;;;6.07;64.37
19526;BME280;9907;42.676;26.348;2023-02-03T08:41:17;99337.53;;;6.03;65.84
19526;BME280;9907;42.676;26.348;2023-02-03T08:43:44;99326.09;;;6.03;65.15
19526;BME280;9907;42.676;26.348;2023-02-03T08:46:11;99347.13;;;6.06;64.75
19526;BME280;9907;42.676;26.348;2023-02-03T08:48:37;99339.91;;;6.08;65.17
19526;BME280;9907;42.676;26.348;2023-02-03T08:51:09;99347.25;;;6.17;64.68
19526;BME280;9907;42.676;26.348;2023-02-03T08:53:35;99356.16;;;6.16;64.82
19526;BME280;9907;42.676;26.348;2023-02-03T08:56:09;99370.06;;;6.19;63.60
19526;BME280;9907;42.676;26.348;2023-02-03T08:58:35;99369.22;;;6.19;63.46
19526;BME280;9907;42.676;26.348;2023-02-03T09:01:09;99363.69;;;6.22;63.26
19526;BME280;9907;42.676;26.348;2023-02-03T09:03:35;99364.97;;;6.29;62.66
19526;BME280;9907;42.676;26.348;2023-02-03T09:06:02;99365.66;;;6.58;63.45
19526;BME280;9907;42.676;26.348;2023-02-03T09:08:28;99364.84;;;6.82;61.50
19526;BME280;9907;42.676;26.348;2023-02-03T09:10:53;99352.97;;;6.75;62.16
19526;BME280;9907;42.676;26.348;2023-02-03T09:13:19;99354.44;;;6.92;61.77
19526;BME280;9907;42.676;26.348;2023-02-03T09:15:45;99345.63;;;7.04;60.46
19526;BME280;9907;42.676;26.348;2023-02-03T09:18:10;99354.84;;;7.24;60.38
19526;BME280;9907;42.676;26.348;2023-02-03T09:20:36;99358.25;;;7.01;59.20
19526;BME280;9907;42.676;26.348;2023-02-03T09:23:01;99358.50;;;6.72;60.15
19526;BME280;9907;42.676;26.348;2023-02-03T09:25:27;99360.28;;;6.84;60.55
19526;BME280;9907;42.676;26.348;2023-02-03T09:27:52;99355.84;;;6.72;59.79
19526;BME280;9907;42.676;26.348;2023-02-03T09:30:17;99359.22;;;6.74;59.18
19526;BME280;9907;42.676;26.348;2023-02-03T09:32:43;99367.28;;;6.73;59.52
19526;BME280;9907;42.676;26.348;2023-02-03T09:35:13;99362.28;;;6.81;59.55
19526;BME280;9907;42.676;26.348;2023-02-03T09:37:38;99359.22;;;6.74;59.61
19526;BME280;9907;42.676;26.348;2023-02-03T09:40:04;99366.75;;;6.68;59.34
19526;BME280;9907;42.676;26.348;2023-02-03T09:43:01;99362.63;;;6.64;60.38
19526;BME280;9907;42.676;26.348;2023-02-03T09:45:29;99359.53;;;6.57;60.38
19526;BME280;9907;42.676;26.348;2023-02-03T09:48:01;99359.13;;;6.76;60.54
19526;BME280;9907;42.676;26.348;2023-02-03T09:50:32;99361.66;;;6.65;60.03
19526;BME280;9907;42.676;26.348;2023-02-03T09:53:04;99359.63;;;6.81;59.74
19526;BME280;9907;42.676;26.348;2023-02-03T09:55:40;99358.28;;;6.75;60.70
19526;BME280;9907;42.676;26.348;2023-02-03T10:00:43;99361.97;;;6.73;61.04
19526;BME280;9907;42.676;26.348;2023-02-03T10:06:15;99338.72;;;6.89;59.11
19526;BME280;9907;42.676;26.348;2023-02-03T10:15:01;99350.38;;;7.12;58.20
19526;BME280;9907;42.676;26.348;2023-02-03T10:17:42;99349.81;;;7.32;58.38
19526;BME280;9907;42.676;26.348;2023-02-03T10:20:16;99342.84;;;6.80;58.32
19526;BME280;9907;42.676;26.348;2023-02-03T10:23:10;99335.09;;;7.03;58.54
19526;BME280;9907;42.676;26.348;2023-02-03T10:25:48;99326.53;;;7.35;58.55
19526;BME280;9907;42.676;26.348;2023-02-03T10:28:21;99313.44;;;7.69;58.19
19526;BME280;9907;42.676;26.348;2023-02-03T10:30:50;99308.75;;;7.72;56.85
19526;BME280;9907;42.676;26.348;2023-02-03T10:33:18;99316.50;;;7.39;56.59
19526;BME280;9907;42.676;26.348;2023-02-03T10:36:03;99304.06;;;7.52;56.14
19526;BME280;9907;42.676;26.348;2023-02-03T10:38:34;99309.91;;;7.57;55.73
19526;BME280;9907;42.676;26.348;2023-02-03T10:41:02;99308.63;;;7.50;55.68
19526;BME280;9907;42.676;26.348;2023-02-03T10:43:30;99298.19;;;7.60;55.61
19526;BME280;9907;42.676;26.348;2023-02-03T10:46:22;99301.25;;;7.30;55.33
19526;BME280;9907;42.676;26.348;2023-02-03T10:48:51;99304.28;;;7.13;55.89
19526;BME280;9907;42.676;26.348;2023-02-03T10:51:32;99298.66;;;7.41;56.36
19526;BME280;9907;42.676;26.348;2023-02-03T10:53:59;99280.34;;;7.49;56.00
19526;BME280;9907;42.676;26.348;2023-02-03T10:56:36;99285.59;;;7.38;55.53
19526;BME280;9907;42.676;26.348;2023-02-03T10:59:03;99321.75;;;6.79;55.67
19526;BME280;9907;42.676;26.348;2023-02-03T11:01:42;99296.25;;;6.51;56.44
19526;BME280;9907;42.676;26.348;2023-02-03T11:04:25;99299.75;;;6.52;56.88
19526;BME280;9907;42.676;26.348;2023-02-03T11:07:02;99283.19;;;6.48;57.04
19526;BME280;9907;42.676;26.348;2023-02-03T11:09:40;99281.81;;;6.43;57.70
19526;BME280;9907;42.676;26.348;2023-02-03T11:12:17;99284.88;;;6.62;57.71
19526;BME280;9907;42.676;26.348;2023-02-03T11:14:46;99298.34;;;6.33;57.20
19526;BME280;9907;42.676;26.348;2023-02-03T11:17:25;99299.00;;;6.24;58.20
19526;BME280;9907;42.676;26.348;2023-02-03T11:19:57;99289.66;;;6.44;57.93
19526;BME280;9907;42.676;26.348;2023-02-03T11:22:46;99278.31;;;6.42;58.44
19526;BME280;9907;42.676;26.348;2023-02-03T11:25:18;99282.66;;;6.68;58.88
19526;BME280;9907;42.676;26.348;2023-02-03T11:27:45;99282.84;;;6.91;57.97
19526;BME280;9907;42.676;26.348;2023-02-03T11:30:22;99285.41;;;6.79;58.32
19526;BME280;9907;42.676;26.348;2023-02-03T11:32:50;99288.06;;;6.79;57.16
19526;BME280;9907;42.676;26.348;2023-02-03T11:35:22;99283.84;;;6.64;56.97
19526;BME280;9907;42.676;26.348;2023-02-03T11:37:53;99285.22;;;6.57;56.84
19526;BME280;9907;42.676;26.348;2023-02-03T11:43:31;99279.16;;;6.55;56.56
19526;BME280;9907;42.676;26.348;2023-02-03T11:45:52;99269.59;;;6.65;56.80
19526;BME280;9907;42.676;26.348;2023-02-03T11:48:31;99269.25;;;6.70;56.05
19526;BME280;9907;42.676;26.348;2023-02-03T12:05:36;99252.09;;;6.50;55.20
19526;BME280;9907;42.676;26.348;2023-02-03T12:08:11;99270.34;;;6.67;55.85
19526;BME280;9907;42.676;26.348;2023-02-03T12:21:46;99268.69;;;7.03;55.07
19526;BME280;9907;42.676;26.348;2023-02-03T12:24:42;99266.16;;;7.01;54.51
19526;BME280;9907;42.676;26.348;2023-02-03T12:30:05;99243.81;;;7.16;54.74
19526;BME280;9907;42.676;26.348;2023-02-03T12:32:44;99235.69;;;7.18;54.69
19526;BME280;9907;42.676;26.348;2023-02-03T12:40:21;99231.78;;;7.11;54.78
19526;BME280;9907;42.676;26.348;2023-02-03T12:45:48;99224.13;;;7.19;53.74
19526;BME280;9907;42.676;26.348;2023-02-03T12:48:19;99209.88;;;7.20;53.73
19526;BME280;9907;42.676;26.348;2023-02-03T12:50:51;99204.16;;;7.13;53.04
19526;BME280;9907;42.676;26.348;2023-02-03T12:53:23;99209.03;;;7.19;52.84
19526;BME280;9907;42.676;26.348;2023-02-03T12:55:57;99202.25;;;7.15;52.74
19526;BME280;9907;42.676;26.348;2023-02-03T12:58:38;99206.53;;;7.05;53.09
19526;BME280;9907;42.676;26.348;2023-02-03T13:03:44;99236.38;;;6.72;53.17
19526;BME280;9907;42.676;26.348;2023-02-03T13:06:31;99248.69;;;6.61;53.05
19526;BME280;9907;42.676;26.348;2023-02-03T13:09:20;99260.53;;;6.80;53.58
19526;BME280;9907;42.676;26.348;2023-02-03T13:14:30;99266.50;;;6.71;53.39
19526;BME280;9907;42.676;26.348;2023-02-03T13:17:24;99263.81;;;6.97;53.64
19526;BME280;9907;42.676;26.348;2023-02-03T13:19:55;99268.00;;;6.75;53.28
19526;BME280;9907;42.676;26.348;2023-02-03T13:22:23;99253.66;;;6.78;54.07
19526;BME280;9907;42.676;26.348;2023-02-03T13:24:55;99259.69;;;6.80;53.31
19526;BME280;9907;42.676;26.348;2023-02-03T13:27:49;99263.81;;;6.84;53.57
19526;BME280;9907;42.676;26.348;2023-02-03T13:36:11;99265.22;;;6.90;53.08
19526;BME280;9907;42.676;26.348;2023-02-03T13:44:23;99275.97;;;6.75;51.86
19526;BME280;9907;42.676;26.348;2023-02-03T13:46:52;99265.56;;;6.72;51.46
19526;BME280;9907;42.676;26.348;2023-02-03T13:49:35;99260.53;;;6.93;52.06
19526;BME280;9907;42.676;26.348;2023-02-03T13:52:01;99260.84;;;6.89;52.78
19526;BME280;9907;42.676;26.348;2023-02-03T13:54:34;99259.38;;;6.84;52.68
19526;BME280;9907;42.676;26.348;2023-02-03T13:57:14;99251.72;;;6.93;52.52
19526;BME280;9907;42.676;26.348;2023-02-03T13:59:44;99254.47;;;6.91;52.76
19526;BME280;9907;42.676;26.348;2023-02-03T14:07:35;99265.31;;;6.88;53.62
19526;BME280;9907;42.676;26.348;2023-02-03T14:12:41;99251.41;;;6.84;52.63
19526;BME280;9907;42.676;26.348;2023-02-03T14:22:57;99257.31;;;6.39;57.04
19526;BME280;9907;42.676;26.348;2023-02-03T14:25:24;99247.00;;;6.09;60.00
19526;BME280;9907;42.676;26.348;2023-02-03T14:28:04;99270.31;;;5.77;63.60
19526;BME280;9907;42.676;26.348;2023-02-03T14:30:30;99275.69;;;5.63;65.14
19526;BME280;9907;42.676;26.348;2023-02-03T14:32:58;99291.50;;;5.51;67.13
19526;BME280;9907;42.676;26.348;2023-02-03T14:35:36;99286.81;;;5.42;67.99
19526;BME280;9907;42.676;26.348;2023-02-03T14:38:10;99293.50;;;5.61;69.16
19526;BME280;9907;42.676;26.348;2023-02-03T14:40:58;99289.72;;;5.51;68.68
19526;BME280;9907;42.676;26.348;2023-02-03T14:52:45;99266.28;;;5.45;69.58
19526;BME280;9907;42.676;26.348;2023-02-03T14:55:32;99270.03;;;5.55;69.83
19526;BME280;9907;42.676;26.348;2023-02-03T14:58:12;99271.13;;;5.65;69.12
19526;BME280;9907;42.676;26.348;2023-02-03T15:00:40;99270.16;;;5.66;68.26
19526;BME280;9907;42.676;26.348;2023-02-03T15:05:40;99274.63;;;5.66;67.54
19526;BME280;9907;42.676;26.348;2023-02-03T15:13:42;99289.94;;;5.75;67.98
19526;BME280;9907;42.676;26.348;2023-02-03T15:16:13;99290.84;;;5.61;67.85
19526;BME280;9907;42.676;26.348;2023-02-03T15:18:40;99294.16;;;5.77;67.45
19526;BME280;9907;42.676;26.348;2023-02-03T15:21:14;99285.81;;;5.83;67.10
19526;BME280;9907;42.676;26.348;2023-02-03T15:23:42;99285.28;;;5.78;66.77
19526;BME280;9907;42.676;26.348;2023-02-03T15:26:20;99285.06;;;5.81;65.64
19526;BME280;9907;42.676;26.348;2023-02-03T15:29:02;99288.56;;;5.82;65.92
19526;BME280;9907;42.676;26.348;2023-02-03T15:34:10;99276.16;;;5.82;64.13